HLGD

Details ICAO HLGD (SRX)
Name SIRTE
Region Libya
Timezone Africa/Tripoli (UTC+2.0)
Plans Departing 1
Arriving 3
Stats Elevation 267 ft / 81 m (AMSL)
Location 31.057673° 16.599215°
Runways 2
Magnetic Variation 3.025° E
Sunrise 2018-05-25 03:54:25 UTC / 2018-05-25 05:54:25 Local
Sunset 2018-05-25 17:49:31 UTC / 2018-05-25 19:49:31 Local
Advertisement - Login to hide

Runways

ID Width Length Bearing (true) Bearing (mag) Surface Threshold Offset Overrun Length
13 148 ft / 45 m 11,817 ft / 3,602 m 134.35° 131.33° Asphalt 0 ft / 0 m 1,017 ft / 310 m
18 148 ft / 45 m 11,840 ft / 3,609 m 179.33° 176.31° Asphalt 0 ft / 0 m 1,000 ft / 305 m
31 148 ft / 45 m 11,817 ft / 3,602 m 314.36° 311.34° Asphalt 0 ft / 0 m 1,017 ft / 310 m
36 148 ft / 45 m 11,840 ft / 3,609 m 359.33° 356.31° Asphalt 0 ft / 0 m 1,000 ft / 305 m

Map

Weather


0- 5 10 15 20 25 30 35+ Temperature / ° C

Clouds and Precipitation
Forecast for 2018-05-25 00:00 UTC. Updated 5 hours ago

Ground ~20,000 ft ~40,000 ft Winds

METAR

Not found

TAF

TAF HLGD 241700Z 2418/2518 03010KT 9999 SCT030 BECMG 2421/2423 VRB02KT 8000 BECMG 2512/2514 03010KT CAVOK

Frequencies

Ground 122.40 MHz GND
Tower 118.60 MHz TWR
Warning: Do not use this data for real-world aviation or navigation. No guarantee of current accuracy is given.